Time;durP1;ratioP1;P1;durP2;ratioP2;P2;SDS_P1;SDS_P2;PMS_P1;PMS_P2;Temp;Humidity;BMP_temperature;BMP_pressure;BME280_temperature;BME280_humidity;BME280_pressure;Samples;Min_cycle;Max_cycle;Signal;HPM_P1;HPM_P2
2021/08/08 00:01:36;;;;;;;5.38;2.35;;;16.70;99.10;;;;;;4995884;28;20046;-83
2021/08/08 00:04:02;;;;;;;4.85;2.85;;;16.70;99.10;;;;;;4995821;28;20120;-83
2021/08/08 00:06:27;;;;;;;4.15;3.03;;;16.70;99.10;;;;;;4963563;28;20373;-83
2021/08/08 00:08:53;;;;;;;4.88;2.40;;;16.60;99.10;;;;;;4998704;28;20022;-83
2021/08/08 00:11:18;;;;;;;6.72;2.55;;;16.60;99.20;;;;;;4979633;28;20376;-83
2021/08/08 00:13:44;;;;;;;6.38;2.80;;;16.60;99.20;;;;;;4963386;28;20030;-83
2021/08/08 00:16:10;;;;;;;6.65;3.20;;;16.60;99.30;;;;;;4995586;28;20026;-83
2021/08/08 00:18:36;;;;;;;6.13;3.10;;;16.60;99.20;;;;;;4962010;28;20421;-83
2021/08/08 00:21:01;;;;;;;6.72;3.13;;;16.60;99.30;;;;;;4971469;28;20551;-84
2021/08/08 00:23:27;;;;;;;5.10;3.20;;;16.60;99.30;;;;;;4944083;28;20050;-84
2021/08/08 00:25:52;;;;;;;5.65;3.30;;;16.60;99.50;;;;;;4960193;28;20038;-83
2021/08/08 00:28:18;;;;;;;8.85;3.83;;;16.60;99.50;;;;;;4976235;28;20026;-83
2021/08/08 00:30:44;;;;;;;8.68;3.67;;;16.60;99.60;;;;;;4944007;28;20165;-83
2021/08/08 00:33:09;;;;;;;7.25;4.25;;;16.60;99.70;;;;;;4992253;28;20827;-84
2021/08/08 00:35:35;;;;;;;7.78;3.92;;;16.60;99.60;;;;;;4959732;28;20041;-83
2021/08/08 00:38:01;;;;;;;9.32;3.90;;;16.60;99.70;;;;;;4978682;28;20113;-84
2021/08/08 00:40:28;;;;;;;5.78;3.70;;;16.60;99.80;;;;;;4975858;28;20014;-83
2021/08/08 00:42:53;;;;;;;8.02;4.22;;;16.60;99.80;;;;;;4943916;28;20460;-84
2021/08/08 00:45:20;;;;;;;8.68;4.47;;;16.50;99.90;;;;;;4959869;28;20030;-84
2021/08/08 00:47:46;;;;;;;7.63;4.32;;;16.50;99.90;;;;;;4959636;28;20053;-83
2021/08/08 00:50:14;;;;;;;9.75;5.13;;;16.50;99.90;;;;;;4975575;28;20030;-84
2021/08/08 00:52:40;;;;;;;7.40;4.47;;;16.50;99.90;;;;;;4959643;28;20069;-84
2021/08/08 00:55:08;;;;;;;9.60;5.28;;;16.50;99.90;;;;;;4959108;28;20082;-83
2021/08/08 00:57:33;;;;;;;7.55;4.90;;;16.50;99.90;;;;;;4968372;28;20117;-83
2021/08/08 01:00:03;;;;;;;13.23;5.30;;;16.50;99.90;;;;;;4993019;28;20118;-84
2021/08/08 01:02:31;;;;;;;11.70;4.95;;;16.50;99.90;;;;;;4991758;28;20085;-84
2021/08/08 01:05:20;;;;;;;10.32;5.30;;;16.40;99.90;;;;;;4961645;28;20019;-85
2021/08/08 01:07:53;;;;;;;8.50;5.60;;;16.40;99.90;;;;;;4990653;28;20042;-84
2021/08/08 01:10:19;;;;;;;9.48;6.68;;;16.30;99.90;;;;;;4991607;28;20109;-84
2021/08/08 01:12:46;;;;;;;12.02;6.28;;;16.30;99.90;;;;;;4971862;28;20030;-85
2021/08/08 01:15:12;;;;;;;10.30;6.25;;;16.30;99.90;;;;;;4975382;28;20026;-83
2021/08/08 01:17:42;;;;;;;11.05;6.63;;;16.30;99.90;;;;;;4975302;28;20476;-85
2021/08/08 01:20:11;;;;;;;12.25;6.28;;;16.30;99.90;;;;;;4976186;28;20061;-86
2021/08/08 01:22:43;;;;;;;14.00;7.38;;;16.30;99.90;;;;;;4998966;28;20046;-86
2021/08/08 01:25:09;;;;;;;12.52;6.68;;;16.20;99.90;;;;;;5012192;28;20434;-86
2021/08/08 01:27:37;;;;;;;14.63;7.38;;;16.20;99.90;;;;;;4998115;28;20022;-86
2021/08/08 01:30:04;;;;;;;10.60;7.03;;;16.20;99.90;;;;;;4998003;28;20051;-86
2021/08/08 01:32:33;;;;;;;12.60;7.18;;;16.20;99.90;;;;;;5014420;28;20464;-86
2021/08/08 01:35:02;;;;;;;12.48;7.10;;;16.20;99.90;;;;;;4984692;28;20076;-86
2021/08/08 01:37:31;;;;;;;16.17;8.30;;;16.20;99.90;;;;;;5014338;28;20030;-85
2021/08/08 01:40:06;;;;;;;17.80;8.07;;;16.20;99.90;;;;;;5031938;28;20064;-86
2021/08/08 01:42:33;;;;;;;17.30;7.88;;;16.20;99.90;;;;;;5006352;28;20018;-86
2021/08/08 01:45:02;;;;;;;12.30;7.32;;;16.10;99.90;;;;;;5025648;28;20057;-86
2021/08/08 01:47:31;;;;;;;19.83;8.05;;;16.10;99.90;;;;;;4981821;28;20041;-86
2021/08/08 01:49:58;;;;;;;15.82;8.32;;;16.10;99.90;;;;;;5014271;28;20471;-86
2021/08/08 01:52:24;;;;;;;14.57;7.70;;;16.10;99.90;;;;;;4992523;28;20049;-86
2021/08/08 01:54:53;;;;;;;13.93;7.85;;;16.10;99.90;;;;;;4968242;28;20480;-86
2021/08/08 01:57:18;;;;;;;16.90;8.60;;;16.10;99.90;;;;;;5009348;28;20056;-86
2021/08/08 01:59:44;;;;;;;13.82;8.48;;;16.10;99.90;;;;;;4994819;28;20062;-86
2021/08/08 02:05:38;;;;;;;15.82;8.77;;;16.10;99.90;;;;;;5017871;28;20044;-86
2021/08/08 02:08:04;;;;;;;18.00;8.85;;;16.10;99.90;;;;;;5012879;28;20028;-86
2021/08/08 02:10:29;;;;;;;17.50;8.80;;;16.10;99.90;;;;;;5015740;28;20030;-87
2021/08/08 02:12:55;;;;;;;17.33;9.05;;;16.10;99.90;;;;;;4982288;28;20475;-86
2021/08/08 02:15:46;;;;;;;20.55;9.25;;;16.10;99.90;;;;;;4982104;28;20045;-87
2021/08/08 02:18:11;;;;;;;19.15;9.32;;;16.10;99.90;;;;;;4984875;28;20125;-87
2021/08/08 02:20:37;;;;;;;18.77;8.85;;;16.10;99.90;;;;;;4981831;28;20053;-87
2021/08/08 02:23:03;;;;;;;24.30;9.05;;;16.10;99.90;;;;;;5017972;28;20053;-87
2021/08/08 02:25:29;;;;;;;22.65;10.15;;;16.10;99.90;;;;;;4998497;28;20026;-87
2021/08/08 02:27:55;;;;;;;22.35;10.10;;;16.10;99.90;;;;;;4998040;28;20040;-85
2021/08/08 02:30:20;;;;;;;24.10;10.05;;;16.10;99.90;;;;;;4998135;28;20026;-84
2021/08/08 02:32:46;;;;;;;22.60;10.63;;;16.10;99.90;;;;;;4981761;28;20435;-84
2021/08/08 02:35:12;;;;;;;19.48;8.80;;;16.10;99.90;;;;;;4981819;28;20034;-84
2021/08/08 02:37:38;;;;;;;21.60;9.73;;;16.10;99.90;;;;;;4998030;28;20026;-85
2021/08/08 02:40:04;;;;;;;18.83;9.10;;;16.10;99.90;;;;;;4997125;28;20384;-84
2021/08/08 02:42:31;;;;;;;18.90;8.90;;;16.10;99.90;;;;;;4981302;28;20034;-84
2021/08/08 02:44:57;;;;;;;23.20;8.88;;;16.10;99.90;;;;;;4997498;28;20120;-84
2021/08/08 02:47:23;;;;;;;18.52;8.40;;;16.00;99.90;;;;;;5014966;28;20160;-83
2021/08/08 02:50:08;;;;;;;21.55;9.38;;;16.00;99.90;;;;;;4996850;28;20029;-84
2021/08/08 02:52:35;;;;;;;21.10;8.52;;;16.00;99.90;;;;;;4981251;28;20372;-84
2021/08/08 02:55:01;;;;;;;20.73;9.50;;;16.00;99.90;;;;;;4997017;28;20030;-85
2021/08/08 02:57:26;;;;;;;19.30;7.88;;;16.00;99.90;;;;;;4980822;28;20360;-85
2021/08/08 02:59:52;;;;;;;18.38;8.40;;;16.00;99.90;;;;;;4997100;28;20056;-84
2021/08/08 03:02:18;;;;;;;23.15;8.23;;;16.00;99.90;;;;;;5014589;28;20060;-84
2021/08/08 03:04:43;;;;;;;16.77;7.68;;;16.00;99.90;;;;;;4997040;28;20510;-84
2021/08/08 03:07:09;;;;;;;23.52;8.73;;;16.00;99.90;;;;;;4979527;28;20447;-84
2021/08/08 03:09:35;;;;;;;19.45;8.32;;;16.00;99.90;;;;;;4997174;28;20037;-84
2021/08/08 03:12:00;;;;;;;25.20;8.60;;;16.00;99.90;;;;;;4996931;28;20561;-85
2021/08/08 03:14:26;;;;;;;21.08;8.43;;;16.00;99.90;;;;;;4997068;28;20057;-84
2021/08/08 03:16:52;;;;;;;21.02;7.97;;;16.00;99.90;;;;;;4997134;28;20034;-84
2021/08/08 03:19:18;;;;;;;22.48;9.00;;;16.00;99.90;;;;;;5013670;28;20029;-84
2021/08/08 03:21:44;;;;;;;25.25;7.72;;;15.90;99.90;;;;;;5015058;28;20515;-85
2021/08/08 03:24:10;;;;;;;21.13;8.00;;;15.90;99.90;;;;;;4983075;28;20034;-84
2021/08/08 03:26:36;;;;;;;24.33;8.43;;;15.90;99.90;;;;;;5014290;28;20101;-84
2021/08/08 03:29:02;;;;;;;19.70;7.35;;;16.00;99.90;;;;;;4980297;28;20571;-84
2021/08/08 03:31:27;;;;;;;19.35;6.72;;;15.90;99.90;;;;;;4980634;28;20364;-84
2021/08/08 03:33:56;;;;;;;17.52;6.65;;;16.00;99.90;;;;;;4980338;28;20030;-84
2021/08/08 03:36:23;;;;;;;17.35;6.80;;;16.00;99.90;;;;;;5014074;28;20034;-84
2021/08/08 03:38:49;;;;;;;20.17;6.55;;;15.90;99.90;;;;;;4993203;28;20026;-85
2021/08/08 03:44:37;;;;;;;16.75;6.03;;;16.00;99.90;;;;;;5013104;28;20048;-85
2021/08/08 03:47:03;;;;;;;16.35;5.80;;;15.90;99.90;;;;;;4983304;28;20025;-85
2021/08/08 03:49:28;;;;;;;18.17;6.40;;;15.90;99.90;;;;;;4996422;28;20061;-84
2021/08/08 03:51:54;;;;;;;16.80;6.20;;;15.90;99.90;;;;;;4996173;28;20460;-84
2021/08/08 03:54:20;;;;;;;18.10;6.18;;;15.90;99.90;;;;;;4996785;28;20112;-84
2021/08/08 03:56:45;;;;;;;14.55;5.65;;;15.90;99.90;;;;;;5000062;28;20479;-85
2021/08/08 03:59:11;;;;;;;19.52;5.97;;;15.90;99.90;;;;;;4985379;28;20041;-84
2021/08/08 04:01:37;;;;;;;16.63;6.15;;;15.90;99.90;;;;;;5011282;28;20050;-85
2021/08/08 04:04:02;;;;;;;19.17;6.68;;;15.90;99.90;;;;;;4980038;28;20042;-84
2021/08/08 04:06:28;;;;;;;21.30;6.50;;;15.90;99.90;;;;;;5013704;28;20525;-84
2021/08/08 04:08:54;;;;;;;16.80;5.95;;;15.90;99.90;;;;;;4992986;28;20058;-85
2021/08/08 04:11:19;;;;;;;19.17;5.78;;;15.90;99.90;;;;;;4989812;28;20077;-85
2021/08/08 04:13:45;;;;;;;19.00;6.28;;;15.90;99.90;;;;;;5013346;28;20026;-84
2021/08/08 04:16:11;;;;;;;17.35;6.43;;;15.90;99.90;;;;;;4995910;28;20040;-85
2021/08/08 04:18:36;;;;;;;17.23;5.75;;;15.80;99.90;;;;;;4979003;28;20029;-84
2021/08/08 04:21:02;;;;;;;16.58;6.05;;;15.90;99.90;;;;;;4978836;28;20062;-84
2021/08/08 04:23:28;;;;;;;23.73;6.20;;;15.90;99.90;;;;;;4979522;28;20029;-85
2021/08/08 04:25:54;;;;;;;16.85;6.30;;;15.90;99.90;;;;;;4995591;28;20018;-85
2021/08/08 04:28:19;;;;;;;14.80;5.60;;;15.90;99.90;;;;;;4995462;28;20018;-85
2021/08/08 04:30:45;;;;;;;18.30;5.97;;;15.80;99.90;;;;;;5008046;28;20019;-85
2021/08/08 04:33:10;;;;;;;22.40;5.82;;;15.90;99.90;;;;;;5003245;28;20525;-84
2021/08/08 04:35:38;;;;;;;19.95;6.07;;;15.90;99.90;;;;;;5022397;23;20046;-85
2021/08/08 04:38:04;;;;;;;18.00;5.95;;;15.90;99.90;;;;;;4999013;28;20037;-85
2021/08/08 04:40:30;;;;;;;10.55;5.28;;;15.80;99.90;;;;;;5001291;28;20053;-85
2021/08/08 04:42:56;;;;;;;16.42;5.30;;;15.80;99.90;;;;;;5032906;28;20471;-85
2021/08/08 04:45:22;;;;;;;18.27;5.28;;;15.80;99.90;;;;;;5014907;28;20014;-84
2021/08/08 04:47:49;;;;;;;18.67;5.93;;;15.80;99.90;;;;;;5032665;28;20021;-84
2021/08/08 04:50:15;;;;;;;15.70;6.18;;;15.80;99.90;;;;;;5015168;28;20025;-84
2021/08/08 04:52:41;;;;;;;18.27;6.28;;;15.80;99.90;;;;;;5014865;28;20040;-85
2021/08/08 04:55:08;;;;;;;18.98;5.93;;;15.80;99.90;;;;;;5015000;28;20029;-85
2021/08/08 04:57:34;;;;;;;18.17;5.57;;;15.80;99.90;;;;;;5032405;28;20025;-84
2021/08/08 04:59:59;;;;;;;15.10;5.90;;;15.80;99.90;;;;;;4998549;28;20034;-85
2021/08/08 05:02:25;;;;;;;17.58;6.68;;;15.80;99.90;;;;;;4998543;28;20116;-85
2021/08/08 05:04:51;;;;;;;21.35;5.90;;;15.80;99.90;;;;;;4998281;28;20032;-84
2021/08/08 05:07:17;;;;;;;19.15;6.40;;;15.80;99.90;;;;;;5014730;28;20040;-84
2021/08/08 05:09:42;;;;;;;14.75;5.50;;;15.80;99.90;;;;;;4998261;28;20030;-85
2021/08/08 05:12:08;;;;;;;19.73;5.35;;;15.80;99.90;;;;;;5032550;28;20080;-84
2021/08/08 05:14:40;;;;;;;18.23;6.65;;;15.80;99.90;;;;;;4998099;28;20422;-85
2021/08/08 05:17:07;;;;;;;17.42;5.57;;;15.80;99.90;;;;;;5032586;28;20136;-84
2021/08/08 05:19:32;;;;;;;16.75;5.43;;;15.80;99.90;;;;;;5014673;28;20040;-84
2021/08/08 05:21:58;;;;;;;15.07;5.03;;;15.80;99.90;;;;;;5032097;28;20438;-84
2021/08/08 05:24:24;;;;;;;16.23;5.20;;;15.90;99.90;;;;;;5014507;28;20514;-84
2021/08/08 05:26:50;;;;;;;19.58;5.32;;;15.90;99.90;;;;;;5014520;28;20048;-84
2021/08/08 05:29:16;;;;;;;21.35;5.20;;;15.90;99.90;;;;;;4998214;28;20025;-84
2021/08/08 05:31:41;;;;;;;16.80;5.88;;;15.90;99.90;;;;;;5032069;28;20034;-84
2021/08/08 05:34:08;;;;;;;21.90;5.38;;;15.90;99.90;;;;;;5014375;28;20033;-84
2021/08/08 05:36:33;;;;;;;16.80;5.20;;;15.90;99.90;;;;;;4998304;28;20414;-84
2021/08/08 05:39:00;;;;;;;15.05;5.15;;;15.90;99.90;;;;;;4978663;28;20117;-83
2021/08/08 05:41:27;;;;;;;17.38;4.85;;;15.90;99.90;;;;;;4979205;28;20097;-83
2021/08/08 05:43:53;;;;;;;13.90;4.65;;;15.90;99.90;;;;;;5014154;28;20021;-84
2021/08/08 05:46:19;;;;;;;17.00;4.60;;;15.90;99.70;;;;;;5002143;28;20022;-84
2021/08/08 05:48:44;;;;;;;17.85;5.05;;;15.90;99.90;;;;;;4999820;28;20040;-84
2021/08/08 05:51:10;;;;;;;16.35;5.07;;;15.90;99.80;;;;;;4973921;28;20022;-84
2021/08/08 05:53:36;;;;;;;15.60;4.93;;;15.90;99.80;;;;;;5002001;28;20029;-84
2021/08/08 05:56:02;;;;;;;15.82;4.55;;;15.90;99.70;;;;;;5001942;28;20064;-84
2021/08/08 05:58:27;;;;;;;20.63;5.55;;;16.00;99.80;;;;;;5001940;28;20483;-84
2021/08/08 06:00:53;;;;;;;17.33;4.63;;;16.00;99.80;;;;;;5001983;28;20037;-83
2021/08/08 06:03:18;;;;;;;17.73;4.85;;;16.00;99.70;;;;;;5018262;28;20029;-84
2021/08/08 06:05:45;;;;;;;17.48;4.68;;;16.10;99.80;;;;;;5001814;28;20030;-84
2021/08/08 06:08:10;;;;;;;15.68;4.70;;;16.10;99.40;;;;;;5017775;28;20480;-84
2021/08/08 06:10:37;;;;;;;15.88;4.65;;;16.10;99.90;;;;;;5008268;28;20117;-84
2021/08/08 06:13:03;;;;;;;16.13;5.03;;;16.10;99.50;;;;;;5015704;28;20021;-83
2021/08/08 06:15:29;;;;;;;21.95;5.40;;;16.10;99.50;;;;;;5006315;28;20021;-84
2021/08/08 06:17:54;;;;;;;17.35;4.88;;;16.10;99.40;;;;;;5017765;28;20056;-84
2021/08/08 06:20:20;;;;;;;16.30;5.00;;;16.10;99.50;;;;;;4988161;28;20486;-84
2021/08/08 06:22:46;;;;;;;18.17;4.75;;;16.10;99.40;;;;;;5001440;28;20033;-84
2021/08/08 06:25:12;;;;;;;15.55;4.78;;;16.10;99.40;;;;;;5001193;28;20028;-83
2021/08/08 06:27:38;;;;;;;15.48;5.18;;;16.20;99.60;;;;;;5007453;28;20053;-84
2021/08/08 06:30:05;;;;;;;16.85;4.82;;;16.20;99.10;;;;;;5000144;28;20022;-85
2021/08/08 06:32:30;;;;;;;14.48;4.90;;;16.20;98.70;;;;;;5001301;28;20389;-84
2021/08/08 06:34:56;;;;;;;14.90;4.97;;;16.20;98.80;;;;;;5001108;28;20116;-84
2021/08/08 06:37:22;;;;;;;19.35;4.90;;;16.20;98.70;;;;;;5017329;28;20060;-84
2021/08/08 06:39:47;;;;;;;14.55;5.03;;;16.30;98.90;;;;;;5001414;28;20030;-84
2021/08/08 06:42:13;;;;;;;16.30;4.55;;;16.30;99.20;;;;;;4987224;28;20056;-85
2021/08/08 06:44:39;;;;;;;19.98;5.03;;;16.40;99.10;;;;;;5007429;28;20030;-84
2021/08/08 06:47:05;;;;;;;17.30;4.93;;;16.40;98.90;;;;;;5011497;28;20021;-84
2021/08/08 06:49:30;;;;;;;11.23;3.88;;;16.50;98.80;;;;;;4981335;28;20116;-84
2021/08/08 06:51:56;;;;;;;14.88;4.43;;;16.50;98.80;;;;;;4993950;28;20459;-84
2021/08/08 06:54:22;;;;;;;18.83;5.47;;;16.60;98.40;;;;;;5013392;28;20033;-84
2021/08/08 06:57:07;;;;;;;18.70;4.57;;;16.50;98.60;;;;;;5005118;28;20021;-84
2021/08/08 06:59:32;;;;;;;14.77;4.18;;;16.60;98.40;;;;;;5016523;28;20467;-85
2021/08/08 07:01:58;;;;;;;16.77;4.28;;;16.50;97.70;;;;;;4997352;28;20079;-84
2021/08/08 07:04:24;;;;;;;17.90;4.13;;;16.50;97.70;;;;;;4997331;28;20022;-83
2021/08/08 07:06:50;;;;;;;11.45;4.45;;;16.50;98.20;;;;;;5017139;28;20538;-84
2021/08/08 07:09:16;;;;;;;17.88;5.57;;;16.60;98.20;;;;;;5000445;28;20120;-84
2021/08/08 07:11:41;;;;;;;16.33;4.82;;;16.60;97.70;;;;;;5000558;28;20026;-84
2021/08/08 07:14:07;;;;;;;17.10;5.00;;;16.60;97.90;;;;;;4981212;28;20034;-84
2021/08/08 07:16:33;;;;;;;18.67;5.82;;;16.70;97.80;;;;;;5000700;28;20094;-84
2021/08/08 07:18:58;;;;;;;18.00;4.97;;;16.60;97.40;;;;;;5034638;28;20454;-84
2021/08/08 07:21:24;;;;;;;14.63;4.68;;;16.70;97.40;;;;;;4982751;28;20161;-84
2021/08/08 07:23:49;;;;;;;15.13;4.25;;;16.70;97.70;;;;;;5006749;28;20120;-84
2021/08/08 07:26:15;;;;;;;15.57;4.38;;;16.70;96.70;;;;;;5000210;28;20082;-83
2021/08/08 07:28:41;;;;;;;15.15;4.10;;;16.80;97.10;;;;;;5000354;28;20024;-84
2021/08/08 07:31:06;;;;;;;13.90;4.43;;;16.80;96.80;;;;;;5000095;28;20025;-84
2021/08/08 07:33:32;;;;;;;13.10;3.65;;;16.80;96.80;;;;;;4983312;28;20025;-85
2021/08/08 07:35:58;;;;;;;15.30;4.32;;;16.80;97.00;;;;;;5005068;28;20045;-84
2021/08/08 07:38:23;;;;;;;12.05;3.80;;;16.90;97.20;;;;;;4966799;28;20105;-84
2021/08/08 07:40:49;;;;;;;19.30;4.75;;;16.90;97.20;;;;;;4964409;28;20048;-84
2021/08/08 07:43:14;;;;;;;14.93;4.05;;;17.00;95.90;;;;;;4996304;28;20176;-84
2021/08/08 07:45:40;;;;;;;17.67;3.55;;;17.00;96.50;;;;;;4977085;28;20491;-84
2021/08/08 07:48:06;;;;;;;11.60;3.97;;;17.00;96.10;;;;;;4973845;28;20489;-84
2021/08/08 07:50:32;;;;;;;11.82;4.57;;;17.00;95.90;;;;;;4993052;28;20015;-84
2021/08/08 07:52:57;;;;;;;20.77;4.90;;;17.10;96.40;;;;;;4960890;28;20034;-84
2021/08/08 07:55:23;;;;;;;11.85;3.80;;;17.10;95.90;;;;;;4993727;28;20030;-84
2021/08/08 07:57:50;;;;;;;12.68;4.10;;;17.20;96.20;;;;;;4996517;28;20033;-84
2021/08/08 08:00:15;;;;;;;12.93;3.38;;;17.20;96.90;;;;;;4980335;28;20443;-84
2021/08/08 08:02:41;;;;;;;15.77;3.80;;;17.30;96.30;;;;;;4996252;28;20026;-84
2021/08/08 08:05:07;;;;;;;10.88;3.20;;;17.30;95.80;;;;;;4996330;28;20018;-84
2021/08/08 08:07:51;;;;;;;13.25;3.35;;;17.30;95.50;;;;;;4974901;28;20027;-84
2021/08/08 08:10:17;;;;;;;13.80;4.28;;;17.40;95.40;;;;;;4980131;28;20423;-84
2021/08/08 08:12:42;;;;;;;13.90;3.53;;;17.40;96.00;;;;;;4979676;28;20081;-84
2021/08/08 08:15:09;;;;;;;12.73;3.58;;;17.50;95.90;;;;;;4976757;28;20042;-84
2021/08/08 08:17:34;;;;;;;13.68;4.00;;;17.50;94.90;;;;;;4995835;28;20029;-84
2021/08/08 08:20:00;;;;;;;10.55;3.60;;;17.50;94.70;;;;;;4995919;28;20026;-84
2021/08/08 08:22:26;;;;;;;11.13;3.63;;;17.50;95.20;;;;;;4967410;28;20129;-84
2021/08/08 08:24:51;;;;;;;12.43;3.38;;;17.60;95.20;;;;;;4995477;28;20038;-84
2021/08/08 08:27:17;;;;;;;11.75;3.38;;;17.50;94.80;;;;;;4995301;28;20072;-84
2021/08/08 08:29:43;;;;;;;14.80;4.03;;;17.60;94.60;;;;;;4993398;28;20109;-84
2021/08/08 08:32:08;;;;;;;13.80;3.83;;;17.60;94.40;;;;;;4979126;28;20067;-84
2021/08/08 08:34:35;;;;;;;14.38;4.20;;;17.60;94.70;;;;;;4988363;28;20331;-84
2021/08/08 08:37:00;;;;;;;12.57;3.20;;;17.70;95.30;;;;;;4988764;28;20118;-83
2021/08/08 08:39:26;;;;;;;11.52;3.90;;;17.70;95.40;;;;;;5014988;28;20175;-84
2021/08/08 08:41:54;;;;;;;12.43;3.33;;;17.80;94.30;;;;;;4999325;28;20033;-84
2021/08/08 08:44:21;;;;;;;10.70;3.20;;;17.80;92.70;;;;;;5003361;28;20022;-85
2021/08/08 08:46:48;;;;;;;12.98;3.30;;;17.90;93.20;;;;;;5014354;28;20431;-84
2021/08/08 08:49:20;;;;;;;11.98;3.90;;;17.80;92.90;;;;;;4998730;28;20421;-84
2021/08/08 08:51:53;;;;;;;13.02;3.78;;;17.90;92.70;;;;;;5001067;28;20379;-85
2021/08/08 08:54:20;;;;;;;13.85;3.70;;;17.90;92.20;;;;;;5014943;28;20128;-84
2021/08/08 08:56:45;;;;;;;9.85;3.20;;;18.00;93.20;;;;;;4999317;28;20030;-84
2021/08/08 08:59:11;;;;;;;11.45;3.22;;;18.10;93.50;;;;;;4994206;28;20501;-84
2021/08/08 09:01:39;;;;;;;10.85;3.30;;;18.10;92.80;;;;;;5009841;28;20033;-84
2021/08/08 09:04:05;;;;;;;16.30;4.07;;;18.10;92.00;;;;;;4983642;28;20026;-84
2021/08/08 09:06:31;;;;;;;11.57;3.45;;;18.10;91.80;;;;;;4991443;28;20447;-86
2021/08/08 09:08:57;;;;;;;10.25;2.72;;;18.20;91.60;;;;;;5013733;28;20121;-85
2021/08/08 09:11:23;;;;;;;11.80;3.22;;;18.20;91.30;;;;;;5011718;28;20033;-84
2021/08/08 09:13:54;;;;;;;8.88;3.50;;;18.20;91.50;;;;;;5000823;28;20357;-84
2021/08/08 09:16:21;;;;;;;;;;;18.20;92.10;;;;;;5012605;28;20053;-84
2021/08/08 09:18:57;;;;;;;11.18;2.65;;;18.20;91.30;;;;;;5029559;28;19909;-84
2021/08/08 09:21:23;;;;;;;11.25;3.30;;;18.20;90.70;;;;;;5016775;28;20037;-85
2021/08/08 09:23:54;;;;;;;13.05;2.75;;;18.30;91.50;;;;;;4992695;28;20030;-84
2021/08/08 09:26:58;;;;;;;9.23;3.10;;;18.30;91.40;;;;;;5014586;28;20021;-85
2021/08/08 09:29:24;;;;;;;10.05;3.30;;;18.40;91.40;;;;;;5003685;28;20079;-84
2021/08/08 09:31:51;;;;;;;12.75;3.72;;;18.40;91.30;;;;;;5016399;28;20065;-84
2021/08/08 09:34:40;;;;;;;9.90;3.05;;;18.50;90.90;;;;;;5002650;28;20065;-85
2021/08/08 09:37:15;;;;;;;9.57;3.03;;;18.50;90.70;;;;;;5034009;28;20061;-84
2021/08/08 09:39:43;;;;;;;10.02;3.10;;;18.50;89.00;;;;;;5045315;28;20025;-85
2021/08/08 09:42:11;;;;;;;11.32;3.45;;;18.50;89.60;;;;;;5023459;28;20025;-85
2021/08/08 09:44:48;;;;;;;7.90;2.70;;;18.50;90.30;;;;;;5037414;28;20079;-84
2021/08/08 09:47:14;;;;;;;8.43;3.22;;;18.40;89.30;;;;;;5015242;28;20024;-84
2021/08/08 09:49:39;;;;;;;12.55;3.30;;;18.40;89.10;;;;;;5018916;28;20102;-85
2021/08/08 09:52:05;;;;;;;9.13;3.08;;;18.40;88.60;;;;;;5013421;28;20059;-84
2021/08/08 09:54:37;;;;;;;9.38;2.47;;;18.30;90.20;;;;;;5012847;28;20570;-84
2021/08/08 09:57:24;;;;;;;9.30;3.08;;;18.40;89.70;;;;;;5001427;28;20029;-84
2021/08/08 09:59:52;;;;;;;9.32;2.65;;;18.40;90.50;;;;;;5018412;28;20029;-84
2021/08/08 10:02:20;;;;;;;8.10;2.65;;;18.40;91.00;;;;;;5033720;28;20425;-85
2021/08/08 10:04:50;;;;;;;13.65;3.17;;;18.40;90.90;;;;;;5045786;28;20021;-84
2021/08/08 10:07:17;;;;;;;9.30;2.88;;;18.50;90.30;;;;;;5018256;28;20033;-84
2021/08/08 10:09:49;;;;;;;9.15;2.95;;;18.60;90.90;;;;;;5006046;28;20018;-84
2021/08/08 10:12:56;;;;;;;8.13;2.92;;;18.70;90.50;;;;;;5017880;28;20030;-84
2021/08/08 10:15:22;;;;;;;7.72;2.65;;;18.80;89.40;;;;;;5024949;28;20138;-84
2021/08/08 10:17:50;;;;;;;8.55;2.67;;;18.80;90.40;;;;;;5042805;28;20022;-85
2021/08/08 10:20:36;;;;;;;9.75;2.60;;;18.90;90.40;;;;;;5031206;28;20116;-85
2021/08/08 10:23:02;;;;;;;10.85;3.45;;;18.90;87.60;;;;;;5024484;28;20097;-85
2021/08/08 10:25:29;;;;;;;11.38;2.97;;;18.90;88.50;;;;;;5024600;28;20036;-84
2021/08/08 10:27:56;;;;;;;7.90;2.78;;;18.90;87.20;;;;;;5024318;28;20029;-85
2021/08/08 10:30:22;;;;;;;7.15;2.40;;;19.00;87.40;;;;;;5023968;28;20112;-85
2021/08/08 10:32:48;;;;;;;7.03;2.33;;;19.00;88.70;;;;;;5010862;28;20109;-84
2021/08/08 10:35:16;;;;;;;8.68;2.67;;;19.00;88.20;;;;;;5035056;22;20036;-86
2021/08/08 10:37:44;;;;;;;9.18;2.60;;;19.00;88.90;;;;;;5030048;28;20025;-86
2021/08/08 10:40:12;;;;;;;11.07;3.25;;;19.10;90.00;;;;;;4998389;28;20022;-86
2021/08/08 10:42:45;;;;;;;9.20;2.55;;;19.10;88.10;;;;;;4995066;28;20181;-85
2021/08/08 10:45:24;;;;;;;10.45;2.78;;;19.20;90.00;;;;;;4998378;28;20029;-86
2021/08/08 10:47:55;;;;;;;13.25;3.15;;;19.20;86.70;;;;;;5018165;28;20416;-86
2021/08/08 10:50:22;;;;;;;9.15;2.80;;;19.10;85.40;;;;;;5017759;28;20029;-86
2021/08/08 10:52:47;;;;;;;9.20;2.60;;;19.10;87.00;;;;;;5021205;28;20030;-86
2021/08/08 10:56:06;;;;;;;10.40;2.72;;;19.10;85.90;;;;;;5015026;28;20044;-86
2021/08/08 10:58:44;;;;;;;11.85;2.78;;;19.10;87.70;;;;;;5026574;28;20088;-85
2021/08/08 11:01:22;;;;;;;10.88;2.97;;;19.10;89.10;;;;;;5014061;28;20348;-86
2021/08/08 11:03:52;;;;;;;11.18;2.50;;;19.10;88.80;;;;;;5013680;28;20025;-87
2021/08/08 11:06:24;;;;;;;9.15;2.88;;;19.10;86.60;;;;;;4984846;28;20060;-87
2021/08/08 11:08:55;;;;;;;12.25;2.70;;;19.10;87.20;;;;;;5016455;28;20557;-86
2021/08/08 11:11:29;;;;;;;11.05;2.67;;;19.10;87.20;;;;;;5016549;28;20029;-86
2021/08/08 11:14:11;;;;;;;6.03;2.38;;;19.20;87.40;;;;;;5014697;28;20025;-86
2021/08/08 11:16:37;;;;;;;10.43;2.40;;;19.20;86.10;;;;;;5013227;28;20029;-87
2021/08/08 11:19:03;;;;;;;10.15;2.78;;;19.20;86.00;;;;;;5014495;28;20033;-86
2021/08/08 11:21:41;;;;;;;12.23;3.40;;;19.30;86.60;;;;;;5000077;28;20120;-86
2021/08/08 11:24:11;;;;;;;6.30;2.58;;;19.30;87.80;;;;;;5013619;28;20041;-86
2021/08/08 11:26:37;;;;;;;8.80;2.15;;;19.40;87.50;;;;;;5000203;28;20033;-86
2021/08/08 11:29:05;;;;;;;7.70;2.35;;;19.40;84.90;;;;;;5003450;28;20021;-87
2021/08/08 11:31:33;;;;;;;8.73;2.58;;;19.40;86.70;;;;;;5013126;28;20109;-86
2021/08/08 11:34:05;;;;;;;9.35;2.67;;;19.40;84.50;;;;;;5013574;28;20017;-87
2021/08/08 11:36:41;;;;;;;8.98;2.65;;;19.40;85.70;;;;;;5023397;28;20491;-87
2021/08/08 11:39:09;;;;;;;9.40;2.58;;;19.40;85.10;;;;;;5032247;28;20034;-86
2021/08/08 11:41:36;;;;;;;11.95;2.50;;;19.50;84.50;;;;;;5024509;28;20393;-87
2021/08/08 11:44:02;;;;;;;10.88;2.33;;;19.50;85.40;;;;;;5031747;28;20009;-87
2021/08/08 11:46:28;;;;;;;8.20;2.60;;;19.50;85.70;;;;;;5030954;28;20109;-87
2021/08/08 11:48:54;;;;;;;7.32;2.28;;;19.60;84.50;;;;;;5016341;28;20101;-87
2021/08/08 11:52:15;;;;;;;6.25;2.15;;;19.60;84.30;;;;;;5029149;28;20017;-87
2021/08/08 11:54:41;;;;;;;7.90;2.33;;;19.70;84.80;;;;;;5029990;28;20025;-87
2021/08/08 11:57:09;;;;;;;9.68;2.90;;;19.80;86.60;;;;;;5014864;28;20025;-87
2021/08/08 11:59:36;;;;;;;6.05;2.00;;;19.80;84.30;;;;;;5029512;28;20021;-86
2021/08/08 12:02:03;;;;;;;7.72;2.10;;;19.90;84.80;;;;;;5027468;28;20120;-87
2021/08/08 12:04:35;;;;;;;7.88;2.50;;;20.00;85.00;;;;;;5028929;28;20025;-87
2021/08/08 12:07:03;;;;;;;7.70;2.13;;;20.00;85.20;;;;;;5029145;28;20435;-87
2021/08/08 12:09:29;;;;;;;6.55;2.25;;;20.10;83.40;;;;;;5028854;28;20028;-86
2021/08/08 12:11:56;;;;;;;8.38;2.10;;;20.20;83.20;;;;;;5016604;28;20730;-87
2021/08/08 12:14:31;;;;;;;7.13;2.40;;;20.30;83.40;;;;;;5028547;28;20021;-87
2021/08/08 12:17:16;;;;;;;7.32;2.17;;;20.30;84.00;;;;;;5015988;28;20025;-86
2021/08/08 12:19:50;;;;;;;9.32;2.10;;;20.30;82.40;;;;;;5027014;28;20101;-87
2021/08/08 12:22:19;;;;;;;7.68;2.45;;;20.30;81.20;;;;;;5029850;28;20033;-87
2021/08/08 12:24:47;;;;;;;7.13;2.00;;;20.30;81.50;;;;;;5031042;28;20371;-87
2021/08/08 12:27:28;;;;;;;7.68;2.00;;;20.30;83.20;;;;;;5031490;28;20056;-87
2021/08/08 12:29:57;;;;;;;6.60;2.17;;;20.20;82.60;;;;;;5030149;28;20021;-86
2021/08/08 12:32:23;;;;;;;7.30;2.15;;;20.00;84.10;;;;;;5044009;28;20096;-86
2021/08/08 12:34:50;;;;;;;5.38;1.58;;;19.80;87.20;;;;;;5013379;28;20033;-87
2021/08/08 12:37:22;;;;;;;6.05;2.13;;;19.60;86.50;;;;;;5009548;28;20445;-86
2021/08/08 12:39:47;;;;;;;5.75;1.65;;;19.50;88.00;;;;;;5031089;28;20083;-86
2021/08/08 12:42:18;;;;;;;5.47;1.70;;;19.30;89.40;;;;;;5009769;28;20434;-87
2021/08/08 12:44:46;;;;;;;5.25;1.60;;;19.30;90.20;;;;;;5029128;28;20029;-87
2021/08/08 12:47:25;;;;;;;3.20;1.33;;;19.20;90.30;;;;;;5012312;28;20081;-87
2021/08/08 12:49:51;;;;;;;7.97;1.70;;;19.30;90.90;;;;;;5008688;28;20029;-87
2021/08/08 12:52:17;;;;;;;4.68;1.83;;;19.30;91.00;;;;;;4993573;28;20034;-87